Time;durP1;ratioP1;P1;durP2;ratioP2;P2;SDS_P1;SDS_P2;PMS_P1;PMS_P2;Temp;Humidity;BMP_temperature;BMP_pressure;BME280_temperature;BME280_humidity;BME280_pressure;Samples;Min_cycle;Max_cycle;Signal;HPM_P1;HPM_P2
2022/02/09 00:03:52;;;;;;;13.18;10.07;;;7.20;99.90;;;;;;2586366;54;20737;31
2022/02/09 00:06:40;;;;;;;13.13;9.53;;;7.20;99.90;;;;;;2586481;54;20347;31
2022/02/09 00:09:17;;;;;;;13.30;9.50;;;7.10;99.90;;;;;;2588606;39;21084;31
2022/02/09 00:12:00;;;;;;;12.73;9.70;;;7.20;99.90;;;;;;2586538;54;20019;31
2022/02/09 00:14:42;;;;;;;11.85;9.07;;;7.20;99.90;;;;;;2586208;54;20057;31
2022/02/09 00:20:32;;;;;;;18.90;11.10;;;7.20;99.90;;;;;;2586289;54;20258;31
2022/02/09 00:43:33;;;;;;;13.70;8.65;;;7.20;99.90;;;;;;2586017;54;20871;31
2022/02/09 01:39:12;;;;;;;13.30;9.70;;;7.40;99.90;;;;;;2585923;54;20848;31
2022/02/09 01:55:53;;;;;;;13.32;9.10;;;7.40;99.90;;;;;;2586150;54;20823;31
2022/02/09 01:58:28;;;;;;;13.23;8.70;;;7.40;99.90;;;;;;2585898;54;20022;31
2022/02/09 02:01:01;;;;;;;10.40;8.40;;;7.50;99.90;;;;;;2585842;54;20022;31
2022/02/09 02:03:34;;;;;;;11.18;8.18;;;7.40;99.90;;;;;;2585914;54;20906;31
2022/02/09 02:06:10;;;;;;;10.25;8.23;;;7.40;99.90;;;;;;2593271;47;20026;31
2022/02/09 02:08:46;;;;;;;12.00;8.50;;;7.40;99.90;;;;;;2585991;54;20134;31
2022/02/09 02:11:24;;;;;;;10.20;8.10;;;7.40;99.90;;;;;;2588042;47;20834;31
2022/02/09 02:14:14;;;;;;;9.70;7.80;;;7.50;99.90;;;;;;2604381;47;20057;31
2022/02/09 02:16:50;;;;;;;10.82;8.70;;;7.40;99.90;;;;;;2591942;39;20610;31
2022/02/09 02:19:33;;;;;;;12.07;9.20;;;7.50;99.90;;;;;;2586651;54;20902;31
2022/02/09 02:22:27;;;;;;;11.57;8.88;;;7.40;99.90;;;;;;2586799;54;20883;31
2022/02/09 02:28:18;;;;;;;11.85;9.18;;;7.50;99.90;;;;;;2586448;54;20843;31
2022/02/09 02:36:55;;;;;;;15.68;10.05;;;7.50;99.90;;;;;;2586314;54;20034;31
2022/02/09 02:39:54;;;;;;;12.20;9.65;;;7.50;99.90;;;;;;2604920;46;21261;31
2022/02/09 02:57:12;;;;;;;12.98;10.32;;;7.50;99.90;;;;;;2586724;54;20724;31
2022/02/09 03:08:35;;;;;;;13.90;9.30;;;7.50;99.90;;;;;;2586512;54;20037;31
2022/02/09 03:14:00;;;;;;;15.02;10.05;;;7.50;99.90;;;;;;2586354;54;20859;31
2022/02/09 03:16:42;;;;;;;14.40;10.07;;;7.50;99.90;;;;;;2586656;54;20741;31
2022/02/09 03:19:41;;;;;;;14.88;10.70;;;7.40;99.90;;;;;;2586727;54;20030;31
2022/02/09 03:22:21;;;;;;;16.08;10.77;;;7.50;99.90;;;;;;2608584;46;20030;31
2022/02/09 03:30:52;;;;;;;14.95;10.85;;;7.50;99.90;;;;;;2604586;46;20861;31
2022/02/09 03:42:40;;;;;;;15.68;11.63;;;7.50;99.90;;;;;;2589936;54;20933;31
2022/02/09 03:56:30;;;;;;;17.00;12.10;;;7.50;99.90;;;;;;2586255;54;20844;31
2022/02/09 03:59:04;;;;;;;18.60;12.75;;;7.50;99.90;;;;;;2586322;54;20030;31
2022/02/09 04:01:38;;;;;;;19.70;13.05;;;7.50;99.90;;;;;;2586342;54;20849;31
2022/02/09 04:04:10;;;;;;;17.25;11.35;;;7.50;99.90;;;;;;2586815;54;20100;31
2022/02/09 04:06:49;;;;;;;15.90;11.70;;;7.50;99.90;;;;;;2586183;54;20868;31
2022/02/09 04:09:27;;;;;;;16.65;11.43;;;7.50;99.90;;;;;;2586416;54;21200;31
2022/02/09 04:12:07;;;;;;;17.45;12.25;;;7.40;99.90;;;;;;2586570;54;20153;31
2022/02/09 04:14:49;;;;;;;18.10;13.00;;;7.50;99.90;;;;;;2586680;54;20057;31
2022/02/09 04:17:31;;;;;;;20.95;12.73;;;7.50;99.90;;;;;;2586532;54;20835;31
2022/02/09 04:36:54;;;;;;;16.70;12.05;;;7.40;99.90;;;;;;2586294;54;20893;31
2022/02/09 04:39:36;;;;;;;20.48;14.57;;;7.40;99.90;;;;;;2586336;54;20038;31
2022/02/09 04:45:34;;;;;;;23.33;14.07;;;7.40;99.90;;;;;;2604717;46;20898;31
2022/02/09 04:48:29;;;;;;;20.50;14.00;;;7.40;99.90;;;;;;2593282;46;20029;31
2022/02/09 04:51:14;;;;;;;24.13;14.13;;;7.40;99.90;;;;;;2586227;54;20962;31
2022/02/09 04:56:43;;;;;;;;;;;7.40;99.90;;;;;;2586440;54;20292;31
2022/02/09 04:59:25;;;;;;;26.67;13.75;;;7.40;99.90;;;;;;2586238;54;20670;31
2022/02/09 05:24:15;;;;;;;24.30;14.20;;;7.40;99.90;;;;;;2585945;54;20250;31
2022/02/09 05:27:01;;;;;;;;;;;7.40;99.90;;;;;;2586285;54;20085;31
2022/02/09 05:29:36;;;;;;;24.65;14.82;;;7.40;99.90;;;;;;2586044;54;19941;31
2022/02/09 05:32:11;;;;;;;18.15;11.90;;;7.40;99.90;;;;;;2599081;47;20092;31
2022/02/09 05:34:45;;;;;;;23.00;12.40;;;7.40;99.90;;;;;;2586214;54;20105;31
2022/02/09 05:37:17;;;;;;;21.85;12.20;;;7.40;99.90;;;;;;2586047;54;20935;31
2022/02/09 05:39:48;;;;;;;20.92;12.63;;;7.40;99.90;;;;;;2586005;54;20918;31
2022/02/09 05:42:22;;;;;;;19.10;12.10;;;7.40;99.90;;;;;;2586005;54;20046;31
2022/02/09 05:45:04;;;;;;;22.65;12.98;;;7.40;99.90;;;;;;2585890;54;20060;31
2022/02/09 05:50:28;;;;;;;19.30;12.68;;;7.50;99.90;;;;;;2586116;54;20056;31
2022/02/09 05:53:11;;;;;;;21.80;12.77;;;7.40;99.90;;;;;;2586967;54;20803;31
2022/02/09 05:55:54;;;;;;;24.63;13.57;;;7.50;99.90;;;;;;2605093;46;20405;31
2022/02/09 05:58:46;;;;;;;23.50;12.65;;;7.40;99.90;;;;;;2585869;54;20043;31
2022/02/09 06:01:23;;;;;;;21.15;13.90;;;7.50;99.90;;;;;;2586999;54;20736;31
2022/02/09 06:03:55;;;;;;;18.92;12.38;;;7.50;99.90;;;;;;2586863;54;19965;31
2022/02/09 06:06:29;;;;;;;17.55;11.70;;;7.50;99.90;;;;;;2586827;54;20731;31
2022/02/09 06:09:03;;;;;;;16.88;11.43;;;7.50;99.90;;;;;;2591798;46;20839;31
2022/02/09 06:11:42;;;;;;;16.45;11.25;;;7.50;99.90;;;;;;2586813;54;20046;31
2022/02/09 06:19:50;;;;;;;16.10;10.73;;;7.50;99.90;;;;;;2605553;46;20057;31
2022/02/09 06:22:23;;;;;;;14.05;9.10;;;7.60;99.90;;;;;;2586599;54;20404;31
2022/02/09 06:24:55;;;;;;;16.50;10.60;;;7.60;99.90;;;;;;2586183;54;20760;31
2022/02/09 06:27:27;;;;;;;13.45;9.82;;;7.60;99.90;;;;;;2587103;54;20102;31
2022/02/09 06:30:01;;;;;;;15.55;9.95;;;7.60;99.90;;;;;;2605367;46;19964;31
2022/02/09 06:32:38;;;;;;;13.40;9.00;;;7.60;99.90;;;;;;2604990;46;20026;31
2022/02/09 06:35:11;;;;;;;13.70;9.00;;;7.50;99.90;;;;;;2684538;39;20461;31
2022/02/09 06:37:46;;;;;;;12.50;9.20;;;7.60;99.90;;;;;;2605561;46;20108;31
2022/02/09 06:40:20;;;;;;;15.10;8.40;;;7.60;99.90;;;;;;2586598;54;20245;31
2022/02/09 06:42:52;;;;;;;12.90;7.60;;;7.60;99.90;;;;;;2586547;54;20790;31
2022/02/09 06:45:35;;;;;;;13.07;8.40;;;7.60;99.90;;;;;;2604798;46;20596;31
2022/02/09 06:48:15;;;;;;;13.23;9.27;;;7.60;99.90;;;;;;2586519;54;20052;31
2022/02/09 06:50:53;;;;;;;12.13;8.13;;;7.60;99.90;;;;;;2586653;54;20863;31
2022/02/09 06:53:36;;;;;;;11.70;7.95;;;7.60;99.90;;;;;;2587354;46;20895;31
2022/02/09 06:56:09;;;;;;;13.05;7.63;;;7.60;99.90;;;;;;2605478;46;20031;31
2022/02/09 07:01:31;;;;;;;12.35;8.05;;;7.60;99.90;;;;;;2586509;54;20029;31
2022/02/09 07:04:08;;;;;;;13.00;8.65;;;7.60;99.90;;;;;;2586275;54;20932;31
2022/02/09 07:06:41;;;;;;;125.90;21.40;;;7.60;99.90;;;;;;2586414;54;20845;31
2022/02/09 07:09:16;;;;;;;64.80;14.90;;;7.60;99.90;;;;;;2586681;54;20224;31
2022/02/09 07:11:47;;;;;;;18.70;9.23;;;7.60;99.90;;;;;;2586588;54;20917;31
2022/02/09 07:14:23;;;;;;;14.57;9.00;;;7.60;99.90;;;;;;2586451;54;20745;31
2022/02/09 07:16:59;;;;;;;13.10;8.27;;;7.70;99.90;;;;;;2586549;54;20107;31
2022/02/09 07:19:36;;;;;;;10.80;8.05;;;7.70;99.90;;;;;;2585679;54;20941;31
2022/02/09 07:22:12;;;;;;;12.10;8.10;;;7.70;99.90;;;;;;2586230;54;20100;31
2022/02/09 07:24:47;;;;;;;9.55;7.38;;;7.80;99.90;;;;;;2586615;54;20056;31
2022/02/09 07:27:39;;;;;;;10.50;7.70;;;7.70;99.90;;;;;;2587500;46;20753;31
2022/02/09 07:30:14;;;;;;;14.27;8.80;;;7.80;99.90;;;;;;2586594;54;20649;31
2022/02/09 07:32:47;;;;;;;12.80;8.00;;;7.80;99.90;;;;;;2755129;31;20527;31
2022/02/09 07:35:24;;;;;;;13.75;9.35;;;7.80;99.90;;;;;;2586677;54;20026;31
2022/02/09 07:37:58;;;;;;;13.37;9.57;;;7.90;99.90;;;;;;2586563;54;20050;31
2022/02/09 07:40:31;;;;;;;12.00;8.60;;;7.90;99.90;;;;;;2586433;54;20731;31
2022/02/09 07:51:54;;;;;;;12.50;8.60;;;8.00;99.90;;;;;;2586238;54;19954;31
2022/02/09 07:54:32;;;;;;;14.75;8.85;;;8.00;99.90;;;;;;2586372;54;20142;31
2022/02/09 07:57:04;;;;;;;10.27;7.30;;;8.00;99.90;;;;;;2586332;54;20022;31
2022/02/09 07:59:39;;;;;;;10.20;7.77;;;8.00;99.90;;;;;;2586448;54;20242;31
2022/02/09 08:02:13;;;;;;;11.27;8.18;;;8.10;99.90;;;;;;2586237;54;20022;31
2022/02/09 08:04:46;;;;;;;10.55;7.32;;;8.10;99.90;;;;;;2586760;54;20019;31
2022/02/09 08:07:21;;;;;;;9.90;7.43;;;8.10;99.90;;;;;;2586051;54;20034;31
2022/02/09 08:09:58;;;;;;;11.63;7.43;;;8.10;99.90;;;;;;2586437;54;20033;31
2022/02/09 08:24:29;;;;;;;9.35;6.75;;;8.10;99.90;;;;;;2683839;39;20422;31
2022/02/09 08:27:24;;;;;;;10.43;6.45;;;8.20;99.90;;;;;;2586249;54;19934;31
2022/02/09 08:30:19;;;;;;;9.17;6.40;;;8.20;99.90;;;;;;2586433;54;20484;31
2022/02/09 08:33:04;;;;;;;11.50;6.88;;;8.30;99.90;;;;;;2587028;54;20328;31
2022/02/09 08:35:43;;;;;;;10.35;6.45;;;8.30;99.90;;;;;;2586256;54;20054;31
2022/02/09 08:38:17;;;;;;;9.80;6.43;;;8.40;99.90;;;;;;2585914;54;20062;31
2022/02/09 08:43:49;;;;;;;7.73;6.40;;;8.40;99.90;;;;;;2586062;54;20057;31
2022/02/09 08:46:21;;;;;;;12.05;6.55;;;8.40;99.90;;;;;;2586027;54;21090;31
2022/02/09 08:48:54;;;;;;;9.20;6.40;;;8.50;99.90;;;;;;2586181;54;20895;31
2022/02/09 08:51:27;;;;;;;7.63;5.38;;;8.50;99.90;;;;;;2586351;54;20769;31
2022/02/09 08:54:03;;;;;;;9.00;7.00;;;8.60;99.90;;;;;;2586372;54;20829;31
2022/02/09 08:56:38;;;;;;;11.30;6.50;;;8.60;99.90;;;;;;2586243;54;20273;31
2022/02/09 08:59:13;;;;;;;8.43;5.75;;;8.70;99.90;;;;;;2586171;54;20921;31
2022/02/09 09:01:53;;;;;;;8.18;6.65;;;8.70;99.90;;;;;;2586095;54;20027;31
2022/02/09 09:04:33;;;;;;;8.07;5.30;;;8.80;99.90;;;;;;2605078;46;20030;31
2022/02/09 09:07:13;;;;;;;7.43;5.60;;;8.80;99.90;;;;;;2585952;54;20863;31
2022/02/09 09:09:56;;;;;;;7.22;5.07;;;8.90;99.90;;;;;;2589456;54;20889;31
2022/02/09 10:32:10;;;;;;;4.13;2.63;;;8.90;99.90;;;;;;2585923;54;20042;31
2022/02/09 10:34:43;;;;;;;5.47;2.33;;;9.00;99.90;;;;;;2585733;54;21013;31
2022/02/09 10:37:28;;;;;;;4.15;2.45;;;8.90;99.90;;;;;;2604768;47;20026;31
2022/02/09 10:43:01;;;;;;;3.58;2.30;;;8.90;99.90;;;;;;2586577;54;20741;31
2022/02/09 10:45:44;;;;;;;4.43;2.30;;;8.90;99.90;;;;;;2590017;54;19942;31
2022/02/09 10:48:33;;;;;;;3.40;2.50;;;8.90;99.90;;;;;;2586843;54;20023;31
2022/02/09 10:51:27;;;;;;;4.65;2.95;;;9.00;99.90;;;;;;2586801;54;20045;31
2022/02/09 10:54:14;;;;;;;4.65;2.45;;;9.00;99.90;;;;;;2586371;54;20735;31
2022/02/09 10:56:54;;;;;;;3.65;2.50;;;9.00;99.90;;;;;;2586668;54;20847;31
2022/02/09 10:59:26;;;;;;;3.85;2.75;;;9.00;99.90;;;;;;2586540;54;20035;31
2022/02/09 11:02:04;;;;;;;4.85;3.20;;;9.00;99.90;;;;;;2586511;54;20065;31
2022/02/09 11:04:36;;;;;;;6.55;3.35;;;9.10;99.90;;;;;;2586642;54;20731;31
2022/02/09 11:07:09;;;;;;;4.55;3.45;;;9.10;99.90;;;;;;2605360;46;20744;31
2022/02/09 11:09:43;;;;;;;5.57;3.83;;;9.10;99.90;;;;;;2586457;54;20108;31
2022/02/09 11:12:25;;;;;;;4.57;3.30;;;9.10;99.90;;;;;;2605450;46;20887;31
2022/02/09 11:15:01;;;;;;;4.95;4.10;;;9.10;99.90;;;;;;2586710;54;21267;31
2022/02/09 11:17:36;;;;;;;5.25;3.80;;;9.20;99.90;;;;;;2586555;54;20824;31
2022/02/09 11:20:18;;;;;;;4.55;3.70;;;9.20;99.90;;;;;;2586288;54;20826;31
2022/02/09 11:22:51;;;;;;;4.50;3.60;;;9.10;99.90;;;;;;2585984;54;20879;31
2022/02/09 11:25:31;;;;;;;6.40;3.80;;;9.20;99.90;;;;;;2586693;54;20078;31
2022/02/09 11:28:27;;;;;;;4.63;2.40;;;9.20;99.90;;;;;;2586763;54;20030;31
2022/02/09 11:31:17;;;;;;;5.20;3.80;;;9.30;99.90;;;;;;2586480;54;20251;31
2022/02/09 11:34:07;;;;;;;5.00;3.20;;;9.30;99.90;;;;;;2586573;54;20027;31
2022/02/09 11:36:45;;;;;;;6.67;4.20;;;9.40;99.90;;;;;;2586898;54;20061;31
2022/02/09 11:39:41;;;;;;;3.10;2.50;;;9.40;99.90;;;;;;2586386;54;20031;31
2022/02/09 11:42:39;;;;;;;4.32;2.90;;;9.50;99.90;;;;;;2585973;54;20105;31
2022/02/09 11:46:02;;;;;;;4.95;2.72;;;9.50;99.90;;;;;;2586360;54;20027;31
2022/02/09 11:49:19;;;;;;;;;;;9.70;99.90;;;;;;2586341;54;20866;31
2022/02/09 11:52:07;;;;;;;4.00;2.90;;;9.80;99.90;;;;;;2586711;54;20651;31
2022/02/09 11:55:13;;;;;;;3.55;2.65;;;9.70;99.90;;;;;;2605125;46;20079;31
2022/02/09 12:10:25;;;;;;;3.80;2.00;;;9.80;99.90;;;;;;2585929;54;20832;31
2022/02/09 12:13:06;;;;;;;3.65;1.90;;;9.90;99.90;;;;;;2585895;54;20085;31
2022/02/09 12:18:58;;;;;;;3.35;2.40;;;9.90;99.90;;;;;;2587177;46;20746;31
2022/02/09 12:24:32;;;;;;;2.30;1.40;;;9.90;99.90;;;;;;2586201;54;20249;31
2022/02/09 12:27:08;;;;;;;1.73;1.40;;;9.80;99.90;;;;;;2586340;54;20807;31
2022/02/09 12:29:43;;;;;;;2.13;1.70;;;9.80;99.90;;;;;;2586397;54;20896;31
2022/02/09 12:32:29;;;;;;;2.85;1.80;;;9.70;99.90;;;;;;2586093;54;20867;31
2022/02/09 12:35:04;;;;;;;5.45;2.97;;;9.70;99.90;;;;;;2586512;54;20918;31
2022/02/09 12:37:37;;;;;;;2.43;1.73;;;9.70;99.90;;;;;;2589470;46;20472;31
2022/02/09 12:40:12;;;;;;;2.63;1.85;;;9.70;99.90;;;;;;2586308;54;21077;31
2022/02/09 12:42:50;;;;;;;3.45;2.85;;;9.70;99.90;;;;;;2586120;54;20028;31
2022/02/09 12:45:26;;;;;;;2.47;1.58;;;9.60;99.90;;;;;;2586047;54;20900;31
2022/02/09 12:48:05;;;;;;;2.97;2.35;;;9.60;99.90;;;;;;2605254;46;20458;31
2022/02/09 12:50:42;;;;;;;4.10;2.20;;;9.60;99.90;;;;;;2586740;46;20737;31
2022/02/09 12:53:25;;;;;;;3.50;2.35;;;9.60;99.90;;;;;;2586444;54;21039;31
2022/02/09 12:56:01;;;;;;;3.10;1.38;;;9.50;99.90;;;;;;2585842;54;20088;31
2022/02/09 12:58:36;;;;;;;4.30;1.80;;;9.50;99.90;;;;;;2586397;54;20023;31
2022/02/09 13:01:11;;;;;;;4.90;2.20;;;9.50;99.90;;;;;;2593129;46;20140;31
2022/02/09 13:03:46;;;;;;;4.33;2.70;;;9.50;99.90;;;;;;2586351;54;20073;31
2022/02/09 13:06:21;;;;;;;3.60;2.77;;;9.50;99.90;;;;;;2586014;54;20328;31
2022/02/09 13:08:55;;;;;;;4.35;2.72;;;9.50;99.90;;;;;;2585868;54;20089;31
2022/02/09 13:11:34;;;;;;;2.63;1.80;;;9.50;99.90;;;;;;2586272;54;20022;31
2022/02/09 13:14:11;;;;;;;5.65;3.22;;;9.50;99.90;;;;;;2586149;54;20160;31
2022/02/09 13:16:56;;;;;;;3.67;2.40;;;9.40;99.90;;;;;;2586192;54;20030;31
2022/02/09 13:26:00;;;;;;;2.97;2.03;;;9.30;99.90;;;;;;2758583;31;21421;31
2022/02/09 14:11:49;;;;;;;4.93;3.17;;;9.40;99.90;;;;;;2586159;54;20026;31
2022/02/09 14:17:17;;;;;;;7.53;3.90;;;9.40;99.90;;;;;;2586522;54;20112;31
2022/02/09 14:48:49;;;;;;;3.40;2.00;;;9.30;99.90;;;;;;2586762;54;20026;31
2022/02/09 14:54:12;;;;;;;4.47;3.30;;;9.20;99.90;;;;;;2684782;39;20341;31
2022/02/09 14:56:56;;;;;;;5.10;2.60;;;9.30;99.90;;;;;;2586342;54;20031;31
2022/02/09 14:59:47;;;;;;;5.32;3.35;;;9.30;99.90;;;;;;2586724;54;20461;31
2022/02/09 15:02:37;;;;;;;3.90;2.00;;;9.30;99.90;;;;;;2596546;46;20018;31
2022/02/09 15:08:14;;;;;;;5.00;3.75;;;9.30;99.90;;;;;;2587142;46;20722;31
2022/02/09 15:10:52;;;;;;;4.70;3.40;;;9.20;99.90;;;;;;2605839;46;22441;31
2022/02/09 15:13:34;;;;;;;5.50;3.63;;;9.20;99.90;;;;;;2586501;54;20032;31
2022/02/09 15:16:19;;;;;;;4.07;2.80;;;9.20;99.90;;;;;;2586607;54;20023;31
2022/02/09 15:19:16;;;;;;;4.70;3.10;;;9.20;99.90;;;;;;2586646;54;20026;31
2022/02/09 15:27:25;;;;;;;3.58;2.63;;;9.10;99.90;;;;;;2589283;46;20022;31
2022/02/09 15:29:57;;;;;;;4.80;2.85;;;9.10;99.90;;;;;;2586598;54;20046;31
2022/02/09 15:32:37;;;;;;;6.35;3.40;;;9.10;99.90;;;;;;2586564;54;20725;31
2022/02/09 15:35:21;;;;;;;7.22;3.10;;;9.10;99.90;;;;;;2586706;54;20093;31
2022/02/09 15:38:00;;;;;;;4.65;3.05;;;9.10;99.90;;;;;;2586520;54;20846;31
2022/02/09 15:40:45;;;;;;;8.73;3.70;;;9.10;99.90;;;;;;2586362;54;20034;31
2022/02/09 15:43:39;;;;;;;5.68;3.38;;;9.00;99.90;;;;;;2586610;54;20855;31
2022/02/09 15:57:49;;;;;;;6.38;3.50;;;9.00;99.90;;;;;;2684315;39;20571;31
2022/02/09 16:06:20;;;;;;;7.00;4.40;;;8.90;99.90;;;;;;2586661;54;20033;31
2022/02/09 16:09:14;;;;;;;9.38;4.28;;;8.90;99.90;;;;;;2586343;54;20053;31
2022/02/09 16:23:12;;;;;;;8.60;4.20;;;8.80;99.90;;;;;;2586303;54;19934;31
2022/02/09 16:37:38;;;;;;;7.95;4.03;;;8.80;99.90;;;;;;2586126;54;20085;31
2022/02/09 16:48:57;;;;;;;8.13;5.13;;;8.70;99.90;;;;;;2586907;54;21285;31
2022/02/09 16:51:33;;;;;;;11.15;5.05;;;8.70;99.90;;;;;;2586438;54;20089;31
2022/02/09 16:54:20;;;;;;;10.63;5.18;;;8.70;99.90;;;;;;2604967;46;20863;31
2022/02/09 17:19:09;;;;;;;11.00;5.60;;;8.50;99.90;;;;;;2586018;54;20879;31
2022/02/09 17:21:44;;;;;;;9.33;5.50;;;8.50;99.90;;;;;;2586060;54;20396;31
2022/02/09 17:24:16;;;;;;;14.70;5.95;;;8.50;99.90;;;;;;2591183;46;20723;31
2022/02/09 17:26:52;;;;;;;10.38;5.95;;;8.50;99.90;;;;;;2586162;54;20038;31
2022/02/09 17:29:41;;;;;;;8.43;5.18;;;8.50;99.90;;;;;;2592049;46;20031;31
2022/02/09 17:32:29;;;;;;;8.63;5.90;;;8.50;99.90;;;;;;2586376;54;21021;31
2022/02/09 17:35:09;;;;;;;10.30;5.70;;;8.40;99.90;;;;;;2684357;39;20921;31
2022/02/09 17:38:16;;;;;;;8.75;5.50;;;8.50;99.90;;;;;;2586496;54;20761;31
2022/02/09 17:57:39;;;;;;;10.57;6.20;;;8.40;99.90;;;;;;2586717;54;20018;31
2022/02/09 18:00:16;;;;;;;9.83;5.63;;;8.40;99.90;;;;;;2586655;54;20473;31
2022/02/09 18:02:52;;;;;;;11.10;5.27;;;8.40;99.90;;;;;;2586985;54;20072;31
2022/02/09 18:05:38;;;;;;;;;;;8.40;99.90;;;;;;2598463;46;20126;31
2022/02/09 18:08:18;;;;;;;9.50;4.75;;;8.40;99.90;;;;;;2586587;54;19952;31
2022/02/09 18:11:00;;;;;;;7.43;4.88;;;8.30;99.90;;;;;;2586898;54;20729;31
2022/02/09 18:28:05;;;;;;;;;;;8.30;99.90;;;;;;2605490;46;20046;31
2022/02/09 18:30:54;;;;;;;11.43;5.30;;;8.40;99.90;;;;;;2605431;46;19934;31
2022/02/09 18:44:41;;;;;;;8.43;4.97;;;8.30;99.90;;;;;;2605138;46;20033;31
2022/02/09 19:04:05;;;;;;;9.10;5.10;;;8.40;99.90;;;;;;2586408;54;20044;31
2022/02/09 19:07:06;;;;;;;9.37;5.33;;;8.30;99.90;;;;;;2588298;46;20049;31
2022/02/09 19:15:34;;;;;;;11.27;7.15;;;8.30;99.90;;;;;;2586782;54;20035;31
2022/02/09 19:18:28;;;;;;;12.20;6.50;;;8.30;99.90;;;;;;2586499;54;20093;31
2022/02/09 19:26:50;;;;;;;12.30;6.70;;;8.40;99.90;;;;;;2605456;46;20855;31
2022/02/09 19:29:53;;;;;;;12.55;6.40;;;8.30;99.90;;;;;;2586372;54;20042;31
2022/02/09 19:32:45;;;;;;;9.90;5.50;;;8.30;99.90;;;;;;2586399;54;20104;31
2022/02/09 19:46:47;;;;;;;13.25;6.10;;;8.30;99.90;;;;;;2586547;54;20023;31
2022/02/09 19:49:36;;;;;;;7.97;5.28;;;8.30;99.90;;;;;;2586474;54;20070;31
2022/02/09 19:52:32;;;;;;;9.45;4.97;;;8.30;99.90;;;;;;2586481;54;20943;31
2022/02/09 19:55:21;;;;;;;10.57;6.03;;;8.30;99.90;;;;;;2586649;54;20864;31
2022/02/09 19:57:56;;;;;;;9.05;5.97;;;8.30;99.90;;;;;;2587829;46;20830;31
2022/02/09 20:00:34;;;;;;;10.43;5.70;;;8.40;99.90;;;;;;2605285;46;20775;31
2022/02/09 20:03:11;;;;;;;13.27;6.55;;;8.30;99.90;;;;;;2586635;54;20029;31
2022/02/09 20:05:47;;;;;;;10.17;6.03;;;8.30;99.90;;;;;;2586665;54;20023;31
2022/02/09 20:08:21;;;;;;;11.95;6.15;;;8.30;99.90;;;;;;2585955;54;20768;31
2022/02/09 20:10:56;;;;;;;12.35;6.90;;;8.30;99.90;;;;;;2586087;54;20943;31
2022/02/09 20:13:35;;;;;;;11.13;5.55;;;8.30;99.90;;;;;;2586595;54;20040;31
2022/02/09 20:16:09;;;;;;;7.70;4.80;;;8.30;99.90;;;;;;2605005;46;20035;31
2022/02/09 20:18:46;;;;;;;13.40;5.93;;;8.30;99.90;;;;;;2586376;54;20027;31
2022/02/09 20:21:21;;;;;;;11.18;5.88;;;8.30;99.90;;;;;;2604994;46;20049;31
2022/02/09 20:23:54;;;;;;;10.65;5.75;;;8.30;99.90;;;;;;2586548;54;20037;31
2022/02/09 20:26:29;;;;;;;9.85;6.05;;;8.30;99.90;;;;;;2605158;46;20864;31
2022/02/09 20:29:07;;;;;;;12.10;6.30;;;8.30;99.90;;;;;;2586267;54;20903;31
2022/02/09 20:31:47;;;;;;;8.43;5.90;;;8.30;99.90;;;;;;2586103;54;20041;31
2022/02/09 20:34:31;;;;;;;13.10;6.40;;;8.30;99.90;;;;;;2586356;54;20023;31
2022/02/09 20:37:10;;;;;;;9.70;6.25;;;8.30;99.90;;;;;;2586467;54;20073;31
2022/02/09 20:39:58;;;;;;;10.25;5.88;;;8.30;99.90;;;;;;2586416;54;20050;31
2022/02/09 20:42:32;;;;;;;10.30;6.10;;;8.30;99.90;;;;;;2586044;54;20921;31
2022/02/09 20:45:12;;;;;;;12.93;6.78;;;8.30;99.90;;;;;;2586304;54;20022;31
2022/02/09 20:47:56;;;;;;;12.55;6.97;;;8.40;99.90;;;;;;2586044;54;20053;31
2022/02/09 20:50:34;;;;;;;14.00;6.37;;;8.40;99.90;;;;;;2586226;54;20038;31
2022/02/09 20:53:08;;;;;;;11.70;6.65;;;8.40;99.90;;;;;;2586237;54;20254;31
2022/02/09 20:55:41;;;;;;;10.38;6.35;;;8.40;99.90;;;;;;2586251;54;20934;31
2022/02/09 20:58:15;;;;;;;11.00;6.30;;;8.40;99.90;;;;;;2586202;54;20105;31
2022/02/09 21:00:54;;;;;;;11.02;6.75;;;8.40;99.90;;;;;;2586156;54;20042;31
2022/02/09 21:03:43;;;;;;;13.45;7.07;;;8.40;99.90;;;;;;2604828;46;20917;31
2022/02/09 21:06:35;;;;;;;10.98;6.35;;;8.40;99.90;;;;;;2586236;54;20469;31
2022/02/09 21:09:19;;;;;;;12.87;6.37;;;8.40;99.90;;;;;;2586128;54;20025;31
2022/02/09 21:12:03;;;;;;;10.07;6.13;;;8.40;99.90;;;;;;2589901;54;20073;31
2022/02/09 21:14:56;;;;;;;10.98;6.30;;;8.40;99.90;;;;;;2586390;54;20355;31
2022/02/09 21:17:52;;;;;;;11.20;6.72;;;8.40;99.90;;;;;;2586196;54;20019;31
2022/02/09 21:20:42;;;;;;;9.43;6.43;;;8.40;99.90;;;;;;2586067;54;20897;31
2022/02/09 21:26:33;;;;;;;14.90;7.37;;;8.30;99.90;;;;;;2585841;54;20645;31
2022/02/09 21:32:31;;;;;;;12.10;6.20;;;8.30;99.90;;;;;;2585731;54;20072;31
2022/02/09 21:50:15;;;;;;;11.87;6.67;;;8.30;99.90;;;;;;2586133;54;20057;31
2022/02/09 21:52:48;;;;;;;11.05;6.32;;;8.30;99.90;;;;;;2585810;54;20764;31
2022/02/09 21:55:28;;;;;;;11.88;6.10;;;8.30;99.90;;;;;;2585940;54;20769;31
2022/02/09 21:58:09;;;;;;;11.40;6.63;;;8.30;99.90;;;;;;2586139;54;20026;31
2022/02/09 22:06:36;;;;;;;12.43;7.20;;;8.30;99.90;;;;;;2585969;54;21029;31
2022/02/09 22:20:54;;;;;;;12.30;6.60;;;8.30;99.90;;;;;;2585934;54;20869;31
2022/02/09 22:24:00;;;;;;;13.87;6.60;;;8.30;99.90;;;;;;2585789;54;20042;31
2022/02/09 22:26:42;;;;;;;10.75;5.95;;;8.30;99.90;;;;;;2585897;54;20731;31
2022/02/09 22:29:34;;;;;;;9.35;5.90;;;8.30;99.90;;;;;;2585745;54;19935;31
2022/02/09 22:32:40;;;;;;;9.33;5.87;;;8.30;99.90;;;;;;2585372;54;20033;31
2022/02/09 22:49:17;;;;;;;10.98;7.15;;;8.20;99.90;;;;;;2586723;54;20906;31
2022/02/09 22:54:41;;;;;;;13.23;8.40;;;8.30;99.90;;;;;;2586620;54;20018;31
2022/02/09 22:57:14;;;;;;;11.55;7.10;;;8.30;99.90;;;;;;2605406;46;20076;31
2022/02/09 22:59:58;;;;;;;11.25;6.75;;;8.20;99.90;;;;;;2591920;46;20790;31
2022/02/09 23:02:37;;;;;;;12.60;7.05;;;8.20;99.90;;;;;;2587013;54;19935;31
2022/02/09 23:07:54;;;;;;;11.93;6.90;;;8.20;99.90;;;;;;2586621;54;20067;31
2022/02/09 23:10:41;;;;;;;10.70;5.85;;;8.20;99.90;;;;;;2586361;54;20026;31
2022/02/09 23:13:20;;;;;;;12.20;5.75;;;8.20;99.90;;;;;;2586478;54;20129;31
2022/02/09 23:16:08;;;;;;;9.48;5.13;;;8.20;99.90;;;;;;2586441;54;20029;31
2022/02/09 23:19:33;;;;;;;12.65;6.70;;;8.20;99.90;;;;;;2593274;46;20033;31
2022/02/09 23:22:06;;;;;;;11.80;7.00;;;8.20;99.90;;;;;;2586782;54;20921;31
